createdAt,value
2022-12-18T00:00:48.783Z,50.44
2022-12-18T00:03:40.756Z,51.91
2022-12-18T00:06:09.556Z,52.00
2022-12-18T00:08:36.926Z,53.33
2022-12-18T00:11:11.922Z,56.26
2022-12-18T00:13:39.355Z,59.20
2022-12-18T00:16:13.009Z,63.49
2022-12-18T00:18:44.505Z,72.08
2022-12-18T00:21:15.406Z,65.09
2022-12-18T00:23:47.053Z,54.60
2022-12-18T00:26:19.368Z,48.91
2022-12-18T00:28:47.337Z,50.70
2022-12-18T00:31:25.080Z,51.16
2022-12-18T00:33:56.665Z,52.99
2022-12-18T00:36:31.300Z,57.43
2022-12-18T00:39:05.596Z,57.90
2022-12-18T00:41:53.982Z,60.51
2022-12-18T00:44:24.280Z,60.12
2022-12-18T00:46:59.076Z,59.53
2022-12-18T00:49:32.195Z,61.94
2022-12-18T00:51:59.440Z,72.45
2022-12-18T00:54:28.574Z,76.84
2022-12-18T00:57:02.005Z,63.34
2022-12-18T00:59:31.781Z,53.59
2022-12-18T01:02:04.280Z,49.64
2022-12-18T01:04:34.102Z,50.59
2022-12-18T01:07:01.591Z,51.45
2022-12-18T01:09:29.940Z,53.78
2022-12-18T01:11:59.062Z,57.87
2022-12-18T01:14:27.368Z,61.37
2022-12-18T01:16:56.321Z,70.44
2022-12-18T01:19:27.296Z,66.99
2022-12-18T01:21:54.896Z,56.87
2022-12-18T01:24:24.299Z,47.46
2022-12-18T01:26:52.760Z,49.74
2022-12-18T01:29:20.325Z,51.79
2022-12-18T01:31:48.216Z,52.51
2022-12-18T01:34:16.067Z,53.26
2022-12-18T01:36:43.056Z,57.54
2022-12-18T01:39:15.284Z,57.88
2022-12-18T01:42:04.067Z,59.85
2022-12-18T01:45:06.736Z,60.78
2022-12-18T01:47:38.238Z,66.54
2022-12-18T01:50:29.484Z,77.20
2022-12-18T01:53:05.500Z,68.73
2022-12-18T01:55:41.509Z,55.25
2022-12-18T01:58:10.785Z,48.12
2022-12-18T02:00:41.374Z,48.69
2022-12-18T02:03:11.169Z,52.38
2022-12-18T02:05:50.103Z,54.32
2022-12-18T02:08:48.650Z,56.27
2022-12-18T02:11:41.383Z,59.46
2022-12-18T02:14:33.387Z,58.49
2022-12-18T02:17:23.742Z,57.44
2022-12-18T02:20:22.849Z,65.47
2022-12-18T02:23:38.136Z,69.62
2022-12-18T02:26:49.380Z,62.34
2022-12-18T02:29:37.683Z,51.99
2022-12-18T02:32:18.497Z,51.25
2022-12-18T02:34:51.580Z,54.96
2022-12-18T02:37:31.622Z,55.74
2022-12-18T02:40:03.716Z,58.80
2022-12-18T02:42:32.563Z,59.19
2022-12-18T02:45:01.763Z,63.37
2022-12-18T02:47:34.823Z,72.82
2022-12-18T02:50:36.382Z,67.93
2022-12-18T02:54:00.729Z,54.93
2022-12-18T02:56:46.864Z,49.54
2022-12-18T02:59:24.917Z,51.36
2022-12-18T03:02:11.811Z,53.15
2022-12-18T03:05:01.394Z,61.27
2022-12-18T03:07:51.769Z,65.77
2022-12-18T03:10:31.062Z,61.38
2022-12-18T03:13:25.368Z,53.59
2022-12-18T03:16:00.089Z,53.17
2022-12-18T03:18:57.627Z,56.11
2022-12-18T03:21:41.718Z,58.21
2022-12-18T03:24:11.764Z,64.05
2022-12-18T03:26:49.823Z,66.61
2022-12-18T03:29:27.160Z,61.42
2022-12-18T03:32:27.302Z,52.53
2022-12-18T03:35:01.381Z,54.46
2022-12-18T03:37:36.099Z,57.36
2022-12-18T03:40:05.862Z,63.10
2022-12-18T03:43:03.999Z,66.18
2022-12-18T03:45:53.655Z,58.38
2022-12-18T03:48:50.673Z,53.43
2022-12-18T03:51:55.176Z,58.38
2022-12-18T03:54:28.802Z,56.03
2022-12-18T03:57:07.392Z,56.13
2022-12-18T03:59:38.021Z,56.30
2022-12-18T04:02:09.280Z,61.19
2022-12-18T04:04:41.513Z,75.01
2022-12-18T04:07:10.917Z,70.24
2022-12-18T04:09:45.860Z,56.92
2022-12-18T04:12:13.666Z,51.10
2022-12-18T04:14:41.903Z,55.04
2022-12-18T04:17:10.362Z,55.24
2022-12-18T04:19:37.435Z,57.59
2022-12-18T04:22:04.944Z,62.94
2022-12-18T04:24:32.544Z,65.03
2022-12-18T04:26:59.148Z,63.20
2022-12-18T04:29:26.012Z,54.25
2022-12-18T04:31:54.890Z,51.13
2022-12-18T04:34:23.379Z,53.34
2022-12-18T04:36:51.629Z,57.67
2022-12-18T04:39:26.664Z,55.63
2022-12-18T04:41:56.237Z,55.55
2022-12-18T04:44:25.754Z,58.40
2022-12-18T04:46:56.399Z,59.50
2022-12-18T04:49:30.254Z,67.77
2022-12-18T04:51:59.372Z,74.32
2022-12-18T04:54:28.668Z,65.25
2022-12-18T04:57:03.317Z,57.20
2022-12-18T04:59:31.178Z,49.15
2022-12-18T05:02:00.631Z,49.86
2022-12-18T05:04:27.516Z,51.48
2022-12-18T05:06:56.868Z,58.03
2022-12-18T05:09:34.456Z,60.08
2022-12-18T05:12:02.638Z,66.12
2022-12-18T05:17:16.316Z,63.66
2022-12-18T05:19:45.057Z,53.93
2022-12-18T05:22:13.328Z,49.38
2022-12-18T05:24:41.609Z,54.44
2022-12-18T05:27:11.729Z,55.67
2022-12-18T05:29:39.906Z,56.29
2022-12-18T05:32:07.592Z,54.94
2022-12-18T05:34:35.612Z,55.95
2022-12-18T05:37:03.772Z,56.42
2022-12-18T05:39:31.614Z,57.56
2022-12-18T05:41:58.456Z,70.86
2022-12-18T05:44:35.996Z,67.85
2022-12-18T05:47:07.496Z,56.18
2022-12-18T05:49:34.337Z,49.35
2022-12-18T05:52:01.398Z,45.01
2022-12-18T05:54:29.656Z,43.51
2022-12-18T05:56:57.400Z,41.39
2022-12-18T05:59:26.158Z,37.95
2022-12-18T06:01:53.363Z,35.37
2022-12-18T06:04:20.230Z,37.06
2022-12-18T06:06:56.441Z,39.82
2022-12-18T06:09:24.695Z,42.42
2022-12-18T06:11:53.342Z,44.78
2022-12-18T06:14:20.855Z,45.45
2022-12-18T06:16:52.778Z,47.39
2022-12-18T06:19:20.041Z,51.43
2022-12-18T06:21:47.879Z,58.61
2022-12-18T06:24:16.866Z,62.47
2022-12-18T06:26:45.868Z,68.08
2022-12-18T06:29:13.564Z,59.97
2022-12-18T06:31:40.839Z,54.27
2022-12-18T06:34:09.071Z,51.84
2022-12-18T06:36:35.580Z,48.18
2022-12-18T06:39:04.969Z,47.54
2022-12-18T06:41:32.049Z,45.70
2022-12-18T06:44:00.103Z,45.70
2022-12-18T06:46:29.543Z,42.95
2022-12-18T06:48:56.094Z,42.54
2022-12-18T06:51:25.735Z,40.74
2022-12-18T06:53:56.816Z,39.49
2022-12-18T06:56:24.268Z,37.59
2022-12-18T06:58:51.620Z,37.08
2022-12-18T07:01:19.072Z,35.35
2022-12-18T07:03:59.412Z,31.74
2022-12-18T07:06:27.883Z,34.51
2022-12-18T07:08:55.699Z,38.30
2022-12-18T07:11:22.846Z,40.19
2022-12-18T07:13:53.436Z,41.38
2022-12-18T07:16:29.362Z,43.40
2022-12-18T07:18:58.659Z,45.94
2022-12-18T07:21:26.558Z,48.47
2022-12-18T07:23:55.799Z,54.34
2022-12-18T07:26:27.307Z,65.37
2022-12-18T07:28:57.946Z,56.37
2022-12-18T07:31:26.364Z,47.79
2022-12-18T07:33:54.904Z,46.26
2022-12-18T07:36:23.915Z,42.78
2022-12-18T07:38:53.624Z,40.76
2022-12-18T07:41:23.383Z,38.19
2022-12-18T07:43:51.515Z,37.02
2022-12-18T07:46:21.007Z,36.02
2022-12-18T07:48:50.425Z,35.15
2022-12-18T07:51:21.342Z,33.95
2022-12-18T07:53:49.679Z,33.10
2022-12-18T07:56:29.466Z,32.69
2022-12-18T07:59:00.031Z,31.00
2022-12-18T08:01:28.543Z,28.96
2022-12-18T08:03:58.682Z,33.06
2022-12-18T08:06:30.841Z,36.02
2022-12-18T08:09:03.027Z,40.01
2022-12-18T08:11:41.825Z,47.21
2022-12-18T08:14:15.251Z,50.67
2022-12-18T08:16:42.603Z,55.05
2022-12-18T08:19:11.060Z,63.10
2022-12-18T08:21:43.612Z,55.72
2022-12-18T08:24:13.602Z,51.88
2022-12-18T08:26:41.639Z,49.52
2022-12-18T08:29:09.705Z,45.98
2022-12-18T08:31:42.554Z,45.53
2022-12-18T08:34:14.099Z,43.51
2022-12-18T08:36:40.729Z,41.86
2022-12-18T08:39:08.466Z,39.96
2022-12-18T08:41:40.092Z,38.84
2022-12-18T08:44:29.490Z,37.21
2022-12-18T08:46:58.599Z,37.50
2022-12-18T08:49:29.910Z,36.58
2022-12-18T08:51:59.375Z,36.20
2022-12-18T08:54:30.958Z,35.51
2022-12-18T08:57:02.332Z,35.68
2022-12-18T08:59:29.144Z,36.04
2022-12-18T09:01:59.573Z,36.14
2022-12-18T09:04:27.119Z,38.44
2022-12-18T09:06:55.233Z,38.87
2022-12-18T09:09:25.540Z,38.06
2022-12-18T09:11:53.709Z,39.27
2022-12-18T09:14:25.673Z,38.62
2022-12-18T09:16:53.829Z,37.24
2022-12-18T09:19:25.829Z,35.92
2022-12-18T09:21:54.345Z,35.33
2022-12-18T09:24:21.929Z,35.91
2022-12-18T09:26:57.878Z,35.90
2022-12-18T09:29:25.997Z,35.62
2022-12-18T09:31:53.093Z,34.75
2022-12-18T09:34:23.932Z,31.90
2022-12-18T09:36:51.715Z,31.40
2022-12-18T09:39:21.830Z,32.43
2022-12-18T09:41:59.346Z,36.88
2022-12-18T09:44:55.393Z,38.15
2022-12-18T09:47:39.726Z,40.22
2022-12-18T09:50:35.051Z,40.84
2022-12-18T09:53:20.602Z,43.81
2022-12-18T09:55:57.003Z,51.37
2022-12-18T09:58:42.507Z,62.37
2022-12-18T10:01:16.874Z,52.96
2022-12-18T10:03:49.200Z,47.65
2022-12-18T10:06:45.499Z,44.34
2022-12-18T10:09:29.177Z,44.21
2022-12-18T10:12:35.781Z,42.18
2022-12-18T10:15:29.090Z,40.72
2022-12-18T10:18:22.623Z,41.24
2022-12-18T10:21:02.313Z,39.73
2022-12-18T10:24:03.012Z,37.71
2022-12-18T10:26:34.781Z,37.27
2022-12-18T10:29:05.720Z,37.32
2022-12-18T10:31:32.718Z,37.12
2022-12-18T10:33:59.537Z,35.09
2022-12-18T10:36:27.834Z,30.63
2022-12-18T10:39:27.035Z,32.29
2022-12-18T10:42:20.146Z,35.81
2022-12-18T10:45:03.062Z,38.18
2022-12-18T10:47:29.924Z,37.17
2022-12-18T10:49:57.812Z,39.04
2022-12-18T10:52:30.814Z,43.55
2022-12-18T10:55:04.739Z,44.88
2022-12-18T10:57:42.675Z,48.27
2022-12-18T11:00:31.074Z,61.38
2022-12-18T11:03:00.844Z,53.48
2022-12-18T11:05:34.659Z,46.62
2022-12-18T11:08:02.344Z,42.96
2022-12-18T11:11:02.000Z,42.13
2022-12-18T11:13:33.180Z,41.87
2022-12-18T11:16:02.049Z,40.57
2022-12-18T11:18:35.296Z,38.89
2022-12-18T11:21:12.601Z,37.34
2022-12-18T11:24:00.980Z,35.88
2022-12-18T11:26:36.917Z,34.64
2022-12-18T11:29:17.880Z,34.25
2022-12-18T11:31:45.451Z,31.30
2022-12-18T11:34:32.828Z,33.11
2022-12-18T11:37:04.131Z,35.54
2022-12-18T11:39:41.691Z,38.13
2022-12-18T11:42:28.012Z,40.33
2022-12-18T11:45:20.159Z,46.34
2022-12-18T11:48:25.277Z,46.50
2022-12-18T11:51:00.212Z,50.02
2022-12-18T11:53:28.394Z,62.55
2022-12-18T11:56:35.801Z,61.32
2022-12-18T11:59:39.109Z,52.41
2022-12-18T12:02:38.175Z,47.08
2022-12-18T12:05:41.765Z,42.85
2022-12-18T12:08:50.736Z,41.64
2022-12-18T12:11:54.071Z,39.15
2022-12-18T12:14:52.504Z,39.68
2022-12-18T12:18:11.639Z,38.85
2022-12-18T12:20:54.304Z,39.44
2022-12-18T12:23:51.877Z,40.41
2022-12-18T12:26:39.573Z,39.04
2022-12-18T12:29:34.787Z,36.96
2022-12-18T12:32:41.205Z,36.57
2022-12-18T12:36:10.349Z,35.88
2022-12-18T12:38:52.325Z,36.28
2022-12-18T12:41:44.439Z,37.58
2022-12-18T12:44:36.580Z,38.17
2022-12-18T12:47:18.141Z,38.75
2022-12-18T12:49:48.075Z,37.92
2022-12-18T12:52:28.166Z,36.69
2022-12-18T12:55:09.055Z,33.01
2022-12-18T12:57:57.130Z,34.85
2022-12-18T13:00:33.121Z,36.75
2022-12-18T13:04:07.481Z,39.12
2022-12-18T13:06:51.018Z,44.81
2022-12-18T13:09:19.030Z,45.08
2022-12-18T13:12:07.967Z,46.36
2022-12-18T13:14:42.955Z,50.35
2022-12-18T13:17:31.273Z,57.54
2022-12-18T13:20:14.136Z,66.64
2022-12-18T13:22:50.680Z,55.72
2022-12-18T13:25:39.626Z,49.52
2022-12-18T13:28:47.324Z,47.75
2022-12-18T13:31:45.695Z,42.65
2022-12-18T13:34:29.314Z,42.27
2022-12-18T13:37:44.948Z,43.83
2022-12-18T13:40:41.486Z,42.32
2022-12-18T13:43:22.086Z,43.38
2022-12-18T13:46:30.678Z,42.25
2022-12-18T13:49:03.450Z,42.55
2022-12-18T13:51:34.810Z,41.67
2022-12-18T13:54:42.923Z,41.60
2022-12-18T13:57:36.409Z,42.06
2022-12-18T14:00:29.079Z,40.95
2022-12-18T14:02:59.171Z,41.72
2022-12-18T14:05:36.186Z,40.70
2022-12-18T14:08:12.993Z,39.77
2022-12-18T14:10:49.727Z,38.74
2022-12-18T14:13:52.194Z,38.83
2022-12-18T14:16:19.378Z,38.36
2022-12-18T14:19:02.248Z,37.06
2022-12-18T14:21:38.987Z,36.52
2022-12-18T14:24:27.041Z,36.00
2022-12-18T14:27:26.468Z,36.96
2022-12-18T14:30:00.114Z,36.66
2022-12-18T14:32:29.873Z,36.93
2022-12-18T14:35:00.587Z,37.66
2022-12-18T14:37:30.482Z,38.66
2022-12-18T14:40:11.357Z,39.18
2022-12-18T14:42:42.522Z,40.40
2022-12-18T14:45:44.901Z,40.97
2022-12-18T14:48:23.668Z,42.69
2022-12-18T14:51:19.752Z,41.99
2022-12-18T14:54:02.935Z,43.14
2022-12-18T14:56:49.593Z,41.30
2022-12-18T14:59:25.450Z,39.62
2022-12-18T15:02:27.904Z,38.78
2022-12-18T15:05:31.399Z,37.05
2022-12-18T15:08:02.709Z,36.56
2022-12-18T15:10:38.619Z,35.94
2022-12-18T15:13:24.389Z,37.01
2022-12-18T15:15:57.413Z,36.37
2022-12-18T15:18:38.351Z,36.01
2022-12-18T15:21:11.856Z,36.09
2022-12-18T15:23:45.756Z,36.28
2022-12-18T15:26:15.181Z,37.58
2022-12-18T15:28:57.848Z,39.08
2022-12-18T15:31:30.934Z,38.81
2022-12-18T15:34:03.485Z,39.80
2022-12-18T15:36:31.869Z,40.83
2022-12-18T15:39:04.632Z,40.45
2022-12-18T15:41:37.101Z,41.80
2022-12-18T15:44:41.758Z,39.46
2022-12-18T15:47:15.505Z,37.80
2022-12-18T15:49:49.983Z,36.22
2022-12-18T15:52:28.369Z,35.94
2022-12-18T15:55:14.959Z,36.56
2022-12-18T15:57:43.722Z,35.08
2022-12-18T16:00:13.197Z,35.21
2022-12-18T16:02:47.612Z,39.69
2022-12-18T16:05:19.277Z,44.54
2022-12-18T16:07:48.460Z,51.31
2022-12-18T16:10:17.958Z,56.64
2022-12-18T16:12:49.228Z,57.71
2022-12-18T16:15:19.754Z,53.57
2022-12-18T16:17:52.340Z,61.88
2022-12-18T16:20:22.669Z,66.23
2022-12-18T16:22:51.662Z,57.27
2022-12-18T16:25:27.843Z,53.20
2022-12-18T16:27:58.772Z,49.76
2022-12-18T16:30:35.791Z,47.21
2022-12-18T16:33:05.572Z,47.26
2022-12-18T16:35:38.504Z,47.30
2022-12-18T16:38:05.319Z,46.53
2022-12-18T16:40:33.354Z,46.48
2022-12-18T16:43:02.600Z,46.16
2022-12-18T16:45:40.206Z,45.42
2022-12-18T16:48:10.168Z,44.51
2022-12-18T16:50:39.263Z,42.66
2022-12-18T16:53:09.977Z,40.47
2022-12-18T16:55:39.625Z,38.17
2022-12-18T16:58:06.895Z,36.86
2022-12-18T17:00:33.667Z,34.70
2022-12-18T17:03:00.738Z,37.03
2022-12-18T17:05:30.225Z,40.20
2022-12-18T17:07:57.036Z,41.73
2022-12-18T17:10:24.071Z,42.27
2022-12-18T17:12:51.209Z,43.70
2022-12-18T17:15:19.956Z,45.48
2022-12-18T17:17:46.750Z,45.51
2022-12-18T17:20:14.107Z,46.40
2022-12-18T17:22:46.525Z,47.23
2022-12-18T17:25:17.166Z,48.40
2022-12-18T17:27:44.100Z,56.36
2022-12-18T17:30:15.541Z,66.55
2022-12-18T17:32:42.787Z,61.16
2022-12-18T17:35:09.538Z,52.81
2022-12-18T17:37:36.757Z,49.64
2022-12-18T17:40:06.812Z,48.59
2022-12-18T17:42:33.956Z,45.08
2022-12-18T17:45:06.209Z,42.80
2022-12-18T17:47:34.668Z,41.61
2022-12-18T17:50:01.563Z,39.27
2022-12-18T17:52:28.296Z,37.12
2022-12-18T17:54:54.714Z,33.50
2022-12-18T17:57:22.886Z,34.50
2022-12-18T17:59:51.098Z,36.68
2022-12-18T18:02:18.778Z,38.33
2022-12-18T18:04:46.180Z,39.92
2022-12-18T18:07:12.883Z,40.81
2022-12-18T18:09:43.259Z,41.46
2022-12-18T18:12:31.611Z,44.47
2022-12-18T18:15:00.837Z,46.07
2022-12-18T18:17:29.637Z,49.46
2022-12-18T18:20:01.631Z,51.68
2022-12-18T18:22:32.710Z,63.83
2022-12-18T18:25:07.465Z,64.90
2022-12-18T18:27:39.224Z,52.83
2022-12-18T18:30:08.651Z,48.39
2022-12-18T18:32:39.401Z,45.24
2022-12-18T18:35:52.372Z,43.17
2022-12-18T18:38:09.536Z,41.28
2022-12-18T18:40:37.080Z,42.03
2022-12-18T18:43:08.359Z,41.15
2022-12-18T18:46:02.950Z,42.06
2022-12-18T18:48:36.794Z,41.51
2022-12-18T18:51:12.291Z,41.02
2022-12-18T18:53:44.658Z,39.83
2022-12-18T18:56:45.507Z,38.24
2022-12-18T18:59:07.125Z,37.14
2022-12-18T19:01:34.426Z,34.17
2022-12-18T19:04:06.024Z,35.94
2022-12-18T19:06:35.478Z,37.92
2022-12-18T19:09:04.440Z,37.68
2022-12-18T19:11:51.620Z,41.12
2022-12-18T19:14:20.198Z,44.40
2022-12-18T19:16:49.080Z,46.39
2022-12-18T19:19:23.653Z,48.79
2022-12-18T19:21:53.530Z,48.61
2022-12-18T19:24:22.729Z,49.91
2022-12-18T19:26:54.176Z,66.97
2022-12-18T19:29:29.146Z,60.51
2022-12-18T19:31:56.247Z,51.05
2022-12-18T19:34:23.317Z,45.66
2022-12-18T19:36:55.263Z,42.26
2022-12-18T19:39:30.536Z,39.72
2022-12-18T19:41:59.036Z,38.36
2022-12-18T19:44:28.048Z,36.38
2022-12-18T19:47:05.589Z,34.11
2022-12-18T19:49:32.676Z,31.27
2022-12-18T19:52:01.758Z,33.13
2022-12-18T19:54:35.964Z,36.62
2022-12-18T19:57:10.387Z,39.02
2022-12-18T19:59:39.121Z,42.68
2022-12-18T20:02:13.636Z,43.46
2022-12-18T20:04:41.057Z,45.23
2022-12-18T20:07:07.813Z,46.79
2022-12-18T20:09:36.328Z,50.55
2022-12-18T20:12:06.886Z,54.15
2022-12-18T20:14:33.339Z,65.37
2022-12-18T20:17:00.689Z,64.57
2022-12-18T20:19:29.732Z,55.38
2022-12-18T20:21:58.616Z,50.18
2022-12-18T20:24:27.574Z,46.53
2022-12-18T20:26:58.034Z,44.74
2022-12-18T20:29:27.555Z,42.68
2022-12-18T20:31:56.146Z,41.02
2022-12-18T20:34:25.159Z,41.25
2022-12-18T20:36:52.274Z,40.40
2022-12-18T20:39:25.867Z,39.37
2022-12-18T20:41:55.977Z,37.99
2022-12-18T20:44:26.424Z,37.34
2022-12-18T20:47:00.643Z,35.09
2022-12-18T20:49:34.555Z,32.90
2022-12-18T20:52:02.429Z,36.52
2022-12-18T20:54:37.192Z,38.69
2022-12-18T20:57:07.169Z,41.26
2022-12-18T20:59:48.429Z,42.76
2022-12-18T21:02:18.303Z,46.13
2022-12-18T21:04:49.875Z,48.03
2022-12-18T21:07:22.178Z,48.14
2022-12-18T21:09:52.504Z,49.20
2022-12-18T21:13:04.522Z,51.81
2022-12-18T21:15:38.161Z,68.40
2022-12-18T21:18:06.508Z,58.71
2022-12-18T21:20:37.665Z,50.30
2022-12-18T21:23:15.868Z,45.83
2022-12-18T21:25:53.034Z,43.01
2022-12-18T21:28:29.154Z,40.39
2022-12-18T21:30:58.540Z,38.31
2022-12-18T21:33:35.354Z,37.52
2022-12-18T21:36:07.961Z,36.84
2022-12-18T21:38:42.140Z,34.95
2022-12-18T21:41:32.069Z,34.26
2022-12-18T21:44:07.055Z,38.88
2022-12-18T21:46:44.157Z,41.26
2022-12-18T21:49:24.394Z,44.50
2022-12-18T21:51:57.353Z,44.23
2022-12-18T21:54:29.608Z,50.24
2022-12-18T21:57:13.676Z,53.77
2022-12-18T21:59:45.291Z,53.35
2022-12-18T22:02:27.023Z,55.76
2022-12-18T22:04:53.778Z,68.75
2022-12-18T22:07:24.574Z,60.83
2022-12-18T22:09:52.070Z,52.99
2022-12-18T22:12:34.851Z,49.76
2022-12-18T22:15:07.137Z,47.00
2022-12-18T22:17:44.162Z,44.62
2022-12-18T22:20:12.281Z,43.07
2022-12-18T22:22:41.635Z,41.92
2022-12-18T22:25:15.740Z,38.48
2022-12-18T22:28:13.900Z,37.02
2022-12-18T22:30:44.936Z,40.36
2022-12-18T22:33:14.094Z,43.49
2022-12-18T22:35:42.143Z,45.52
2022-12-18T22:38:09.646Z,47.21
2022-12-18T22:40:37.911Z,47.34
2022-12-18T22:43:04.888Z,48.23
2022-12-18T22:45:34.157Z,50.45
2022-12-18T22:48:07.888Z,50.59
2022-12-18T22:50:34.799Z,49.94
2022-12-18T22:53:01.638Z,51.61
2022-12-18T22:55:35.963Z,53.54
2022-12-18T22:58:08.021Z,53.05
2022-12-18T23:00:35.179Z,55.42
2022-12-18T23:03:02.289Z,71.29
2022-12-18T23:05:36.097Z,68.83
2022-12-18T23:08:03.541Z,58.51
2022-12-18T23:10:32.514Z,53.50
2022-12-18T23:12:59.259Z,49.93
2022-12-18T23:15:30.637Z,46.26
2022-12-18T23:18:00.208Z,44.56
2022-12-18T23:20:29.260Z,44.22
2022-12-18T23:22:55.741Z,43.40
2022-12-18T23:25:23.360Z,41.67
2022-12-18T23:27:54.642Z,38.72
2022-12-18T23:30:22.406Z,41.58
2022-12-18T23:32:52.305Z,43.89
2022-12-18T23:35:21.666Z,46.02
2022-12-18T23:38:00.001Z,48.43
2022-12-18T23:40:31.179Z,51.12
2022-12-18T23:43:07.453Z,51.20
2022-12-18T23:45:39.251Z,53.83
2022-12-18T23:48:11.624Z,55.87
2022-12-18T23:50:39.185Z,54.26
2022-12-18T23:53:14.182Z,55.16
2022-12-18T23:55:45.258Z,55.90
2022-12-18T23:58:20.266Z,60.23
